Time;durP1;ratioP1;P1;durP2;ratioP2;P2;SDS_P1;SDS_P2;PMS_P1;PMS_P2;Temp;Humidity;BMP_temperature;BMP_pressure;BME280_temperature;BME280_humidity;BME280_pressure;Samples;Min_cycle;Max_cycle;Signal;HPM_P1;HPM_P2
2022/09/03 00:02:01;;;;;;;15.20;8.87;;;;;;;24.13;79.21;98699.03;6122857;23;20170;-87
2022/09/03 00:04:32;;;;;;;14.93;8.30;;;;;;;24.17;78.64;98692.31;6127709;23;20226;-87
2022/09/03 00:07:01;;;;;;;16.63;8.10;;;;;;;24.15;78.67;98697.84;6127333;23;20151;-88
2022/09/03 00:09:33;;;;;;;14.47;8.20;;;;;;;24.17;79.01;98700.34;6127638;23;20160;-87
2022/09/03 00:12:23;;;;;;;16.03;8.30;;;;;;;24.13;79.04;98696.34;6127289;23;20672;-88
2022/09/03 00:15:00;;;;;;;13.07;6.90;;;;;;;24.17;78.48;98708.38;6101479;23;20179;-87
2022/09/03 00:17:34;;;;;;;13.90;6.90;;;;;;;24.25;77.78;98705.66;6128039;23;20139;-87
2022/09/03 00:20:06;;;;;;;10.37;5.67;;;;;;;24.25;76.92;98716.34;6127648;23;20240;-87
2022/09/03 00:22:43;;;;;;;7.13;4.90;;;;;;;24.18;76.05;98715.41;6127487;23;20152;-87
2022/09/03 00:25:17;;;;;;;10.87;4.80;;;;;;;24.22;75.65;98714.03;6127950;23;20136;-87
2022/09/03 00:27:49;;;;;;;7.83;4.60;;;;;;;24.12;76.04;98716.09;6127201;23;20564;-87
2022/09/03 00:30:17;;;;;;;7.53;4.33;;;;;;;24.12;75.19;98706.22;6127171;23;20137;-86
2022/09/03 00:33:09;;;;;;;8.77;5.03;;;;;;;24.13;75.41;98713.25;6127364;23;20678;-87
2022/09/03 00:35:50;;;;;;;9.90;4.40;;;;;;;24.19;75.15;98709.84;6114104;23;20155;-87
2022/09/03 00:38:16;;;;;;;8.37;4.40;;;;;;;24.16;74.94;98712.88;6127803;23;20198;-87
2022/09/03 00:41:00;;;;;;;8.07;3.97;;;;;;;24.28;74.36;98710.66;6127052;23;20234;-87
2022/09/03 00:43:45;;;;;;;10.10;3.97;;;;;;;24.32;74.12;98703.91;6127400;23;20559;-87
2022/09/03 00:46:30;;;;;;;11.97;4.37;;;;;;;24.30;74.51;98703.25;6127059;23;20136;-87
2022/09/03 00:49:04;;;;;;;8.80;4.20;;;;;;;24.22;74.58;98711.34;6127636;23;20454;-87
2022/09/03 00:51:57;;;;;;;9.03;4.67;;;;;;;24.17;74.53;98713.72;6126840;23;20175;-86
2022/09/03 00:54:28;;;;;;;8.63;4.80;;;;;;;24.15;74.25;98707.72;6111483;23;20546;-86
2022/09/03 00:57:24;;;;;;;8.00;4.53;;;;;;;24.16;74.26;98701.38;6126906;23;20159;-86
2022/09/03 00:59:56;;;;;;;10.97;4.40;;;;;;;24.17;74.65;98708.38;6127611;23;20156;-86
2022/09/03 01:02:49;;;;;;;7.97;4.10;;;;;;;24.19;74.64;98699.16;6127437;23;20235;-86
2022/09/03 01:05:30;;;;;;;9.47;4.03;;;;;;;24.24;74.15;98704.00;6127179;23;20136;-86
2022/09/03 01:08:31;;;;;;;6.10;3.50;;;;;;;24.15;74.99;98702.38;6127179;23;20536;-86
2022/09/03 01:11:11;;;;;;;9.37;4.63;;;;;;;24.18;75.34;98700.19;6121109;23;20183;-86
2022/09/03 01:14:15;;;;;;;7.27;4.47;;;;;;;24.24;75.08;98695.97;6126736;23;20152;-86
2022/09/03 01:16:50;;;;;;;12.23;4.50;;;;;;;24.25;75.26;98690.41;6082044;23;20482;-86
2022/09/03 01:19:34;;;;;;;8.17;5.37;;;;;;;24.26;75.89;98694.78;6127418;23;20544;-86
2022/09/03 01:22:24;;;;;;;13.47;6.43;;;;;;;24.09;77.90;98700.38;6126688;23;20140;-87
2022/09/03 01:25:17;;;;;;;13.03;5.47;;;;;;;24.09;77.97;98695.88;6127019;23;20191;-86
2022/09/03 01:28:05;;;;;;;10.20;5.83;;;;;;;24.14;78.15;98696.16;6126428;23;20564;-86
2022/09/03 01:30:37;;;;;;;12.47;5.80;;;;;;;24.15;78.41;98705.03;6126562;23;20604;-86
2022/09/03 01:33:30;;;;;;;8.63;5.67;;;;;;;24.25;77.82;98705.66;6126492;23;20168;-86
2022/09/03 01:35:59;;;;;;;9.17;5.43;;;;;;;24.27;78.09;98704.44;6126937;23;20132;-86
2022/09/03 01:39:01;;;;;;;10.53;5.33;;;;;;;24.37;77.60;98712.28;6100865;23;20563;-86
2022/09/03 01:44:24;;;;;;;8.70;4.80;;;;;;;24.39;76.55;98704.88;6126563;23;20211;-86
2022/09/03 01:47:05;;;;;;;8.60;5.83;;;;;;;24.38;76.75;98717.44;6126435;23;20156;-87
2022/09/03 01:49:40;;;;;;;9.07;4.70;;;;;;;24.41;76.25;98716.25;6126840;23;20139;-87
2022/09/03 01:52:34;;;;;;;12.33;5.70;;;;;;;24.41;75.85;98713.56;6126671;23;20469;-86
2022/09/03 01:55:17;;;;;;;9.33;5.33;;;;;;;24.27;76.49;98708.97;6023391;23;20186;-86
2022/09/03 01:58:01;;;;;;;10.77;5.33;;;;;;;24.30;76.20;98703.25;6126734;23;20267;-86
2022/09/03 02:00:30;;;;;;;7.93;4.37;;;;;;;24.29;76.22;98706.97;6126772;23;20537;-87
2022/09/03 02:03:04;;;;;;;7.47;4.27;;;;;;;24.41;75.13;98710.91;6126339;23;20564;-87
2022/09/03 02:05:30;;;;;;;8.43;4.53;;;;;;;24.37;74.39;98709.59;6126411;23;20135;-87
2022/09/03 02:08:04;;;;;;;7.63;4.43;;;;;;;24.37;73.92;98706.91;6126361;23;20152;-87
2022/09/03 02:10:31;;;;;;;10.13;4.50;;;;;;;24.35;73.54;98714.28;6126745;23;20175;-87
2022/09/03 02:13:23;;;;;;;9.20;4.97;;;;;;;24.25;73.87;98717.19;6126561;23;20186;-88
2022/09/03 02:15:51;;;;;;;7.93;4.67;;;;;;;24.19;74.39;98717.06;6127014;23;20167;-88
2022/09/03 02:18:25;;;;;;;8.70;4.77;;;;;;;24.13;74.61;98717.78;6100672;23;20632;-87
2022/09/03 02:20:53;;;;;;;9.40;5.07;;;;;;;24.05;74.98;98725.81;6126321;23;20215;-88
2022/09/03 02:23:19;;;;;;;7.90;5.30;;;;;;;23.98;75.03;98725.69;6100691;23;20160;-87
2022/09/03 02:25:50;;;;;;;7.47;5.00;;;;;;;23.94;75.24;98723.53;6100651;23;20162;-87
2022/09/03 02:28:15;;;;;;;9.73;5.37;;;;;;;24.00;75.00;98722.84;6126246;23;20146;-87
2022/09/03 02:30:41;;;;;;;11.33;5.57;;;;;;;23.96;74.86;98722.34;6126188;23;20234;-87
2022/09/03 02:33:07;;;;;;;9.43;5.40;;;;;;;23.95;75.17;98730.56;6126141;23;20176;-87
2022/09/03 02:35:33;;;;;;;10.30;5.13;;;;;;;23.90;75.04;98717.69;6126212;23;20152;-87
2022/09/03 02:38:09;;;;;;;12.43;6.00;;;;;;;23.93;74.88;98724.53;6127302;23;20152;-87
2022/09/03 02:40:34;;;;;;;8.60;4.77;;;;;;;23.87;75.03;98719.91;6128192;23;20147;-87
2022/09/03 02:43:03;;;;;;;8.73;4.97;;;;;;;23.81;75.17;98724.94;6102632;23;20148;-87
2022/09/03 02:45:28;;;;;;;9.83;5.10;;;;;;;23.75;76.18;98730.16;6128472;23;20148;-87
2022/09/03 02:47:57;;;;;;;8.00;5.33;;;;;;;23.70;76.00;98725.31;6128142;23;20171;-87
2022/09/03 02:50:23;;;;;;;7.43;4.33;;;;;;;23.67;75.85;98727.50;6128745;23;20162;-88
2022/09/03 02:52:49;;;;;;;9.80;5.13;;;;;;;23.64;75.94;98722.47;6128315;23;20183;-88
2022/09/03 02:55:15;;;;;;;7.97;5.03;;;;;;;23.53;76.73;98723.69;6128208;23;20163;-87
2022/09/03 02:57:41;;;;;;;9.30;5.23;;;;;;;23.54;76.58;98725.38;6128045;23;20152;-87
2022/09/03 03:00:07;;;;;;;11.47;5.40;;;;;;;23.45;76.53;98726.41;6127969;23;20484;-87
2022/09/03 03:02:33;;;;;;;10.13;5.60;;;;;;;23.46;76.85;98730.75;6128329;23;20211;-87
2022/09/03 03:04:58;;;;;;;7.97;4.80;;;;;;;23.39;77.90;98727.09;6127944;23;20472;-87
2022/09/03 03:07:25;;;;;;;9.00;5.47;;;;;;;23.44;77.49;98730.09;6128257;23;20148;-87
2022/09/03 03:09:51;;;;;;;9.67;5.40;;;;;;;23.44;77.53;98726.56;6102344;23;20160;-87
2022/09/03 03:12:16;;;;;;;11.33;5.87;;;;;;;23.46;77.17;98729.91;6127806;23;20258;-87
2022/09/03 03:14:42;;;;;;;9.97;5.73;;;;;;;23.47;77.33;98727.06;6127861;23;20178;-87
2022/09/03 03:17:08;;;;;;;10.80;4.80;;;;;;;23.58;76.54;98733.91;6128209;23;20175;-87
2022/09/03 03:19:33;;;;;;;10.53;6.37;;;;;;;23.49;77.17;98725.06;6102323;23;20465;-87
2022/09/03 03:21:59;;;;;;;10.40;6.50;;;;;;;23.45;77.59;98723.75;6128823;23;20152;-87
2022/09/03 03:24:25;;;;;;;11.43;6.20;;;;;;;23.45;77.29;98723.75;6127750;23;20531;-87
2022/09/03 03:26:53;;;;;;;12.07;6.17;;;;;;;23.42;77.48;98726.75;6128104;23;20214;-87
2022/09/03 03:29:19;;;;;;;10.53;6.13;;;;;;;23.36;77.34;98730.06;6127759;23;20306;-87
2022/09/03 03:31:44;;;;;;;9.90;6.37;;;;;;;23.34;78.08;98728.56;6127619;23;20560;-87
2022/09/03 03:34:10;;;;;;;10.13;5.60;;;;;;;23.37;77.99;98731.78;6102191;23;20298;-87
2022/09/03 03:36:36;;;;;;;10.30;5.80;;;;;;;23.27;78.50;98731.94;6127985;23;20588;-87
2022/09/03 03:39:02;;;;;;;15.93;6.97;;;;;;;23.12;79.47;98728.28;6127594;23;20222;-87
2022/09/03 03:41:32;;;;;;;10.13;5.87;;;;;;;23.16;79.24;98723.44;6127619;23;20144;-87
2022/09/03 03:44:01;;;;;;;10.33;5.37;;;;;;;23.20;78.97;98735.47;6128360;23;20555;-87
2022/09/03 03:46:35;;;;;;;11.07;6.30;;;;;;;23.27;78.72;98732.94;6103346;23;20459;-87
2022/09/03 03:49:01;;;;;;;11.50;5.83;;;;;;;23.13;79.69;98729.97;6102303;23;20217;-87
2022/09/03 03:51:27;;;;;;;14.20;6.57;;;;;;;23.20;79.25;98732.78;6127769;23;20175;-88
2022/09/03 03:53:56;;;;;;;10.43;6.23;;;;;;;23.29;78.50;98738.97;6127468;23;20152;-87
2022/09/03 03:56:24;;;;;;;11.97;5.87;;;;;;;23.17;79.35;98725.94;6127829;23;20140;-87
2022/09/03 03:58:50;;;;;;;8.67;5.30;;;;;;;23.13;79.43;98735.31;6101929;23;20568;-87
2022/09/03 04:01:19;;;;;;;14.40;5.67;;;;;;;23.14;79.10;98730.78;6127819;23;20155;-87
2022/09/03 04:03:44;;;;;;;9.33;5.70;;;;;;;23.05;79.55;98740.66;6127387;23;20152;-88
2022/09/03 04:06:12;;;;;;;10.60;6.07;;;;;;;23.06;79.44;98738.84;6127787;23;20532;-87
2022/09/03 04:08:39;;;;;;;8.23;5.57;;;;;;;23.17;79.37;98735.78;6127369;23;20291;-86
2022/09/03 04:11:09;;;;;;;10.47;5.73;;;;;;;23.18;78.57;98734.81;6127935;23;20147;-88
2022/09/03 04:13:37;;;;;;;10.20;5.80;;;;;;;23.07;79.22;98735.97;6127319;23;20159;-88
2022/09/03 04:16:05;;;;;;;10.63;5.53;;;;;;;23.07;79.42;98745.84;6127620;23;20152;-87
2022/09/03 04:18:32;;;;;;;11.17;5.57;;;;;;;23.13;78.67;98747.84;6127288;23;20600;-86
2022/09/03 04:21:03;;;;;;;18.20;5.53;;;;;;;23.14;78.36;98746.81;6127255;23;20179;-87
2022/09/03 04:23:32;;;;;;;8.33;5.20;;;;;;;23.10;78.23;98746.34;6127649;23;20129;-87
2022/09/03 04:25:58;;;;;;;9.73;5.93;;;;;;;23.04;78.74;98740.81;6127229;23;20147;-87
2022/09/03 04:28:23;;;;;;;9.63;5.47;;;;;;;23.07;78.54;98745.84;6127162;23;20162;-87
2022/09/03 04:30:49;;;;;;;8.63;5.37;;;;;;;23.02;77.99;98745.50;6101552;23;20166;-87
2022/09/03 04:33:14;;;;;;;12.23;6.67;;;;;;;23.06;77.90;98757.56;6127058;23;20183;-87
2022/09/03 04:35:40;;;;;;;9.63;5.80;;;;;;;23.01;78.13;98757.19;6127429;23;20148;-88
2022/09/03 04:38:06;;;;;;;8.97;5.50;;;;;;;22.91;79.02;98760.06;6127099;23;20219;-87
2022/09/03 04:40:32;;;;;;;7.23;4.47;;;;;;;22.95;79.02;98757.88;6127043;23;20647;-86
2022/09/03 04:42:59;;;;;;;10.17;5.37;;;;;;;23.00;78.30;98756.38;6127054;23;20144;-86
2022/09/03 04:45:24;;;;;;;9.40;5.57;;;;;;;22.93;78.94;98765.25;6127027;23;20218;-87
2022/09/03 04:48:03;;;;;;;8.10;4.73;;;;;;;23.07;78.54;98761.88;6126977;23;20219;-86
2022/09/03 04:50:31;;;;;;;9.03;4.87;;;;;;;23.11;78.51;98774.72;6126943;23;20458;-87
2022/09/03 04:53:01;;;;;;;9.40;5.60;;;;;;;23.23;77.53;98777.91;6126853;23;20266;-86
2022/09/03 04:55:27;;;;;;;7.50;4.37;;;;;;;23.21;77.55;98779.94;6126897;23;20611;-88
2022/09/03 04:57:52;;;;;;;8.77;4.83;;;;;;;23.17;78.00;98773.22;6126832;23;20152;-87
2022/09/03 05:00:19;;;;;;;8.13;4.60;;;;;;;23.35;77.45;98775.72;6126854;23;20592;-87
2022/09/03 05:02:50;;;;;;;7.07;4.17;;;;;;;23.42;77.55;98768.72;6127518;23;20222;-86
2022/09/03 05:05:16;;;;;;;9.50;4.90;;;;;;;23.59;76.61;98773.00;6126823;23;20155;-87
2022/09/03 05:07:42;;;;;;;9.73;4.60;;;;;;;23.56;75.99;98774.19;6127847;23;20226;-87
2022/09/03 05:10:11;;;;;;;8.77;5.77;;;;;;;23.53;75.76;98774.53;6127140;23;20227;-88
2022/09/03 05:12:38;;;;;;;7.70;5.10;;;;;;;23.56;76.55;98778.69;6126519;23;20183;-87
2022/09/03 05:15:05;;;;;;;9.37;5.37;;;;;;;23.66;76.45;98779.38;6127036;23;20156;-87
2022/09/03 05:17:30;;;;;;;10.93;5.30;;;;;;;23.71;75.99;98783.19;6127060;23;20615;-88
2022/09/03 05:19:56;;;;;;;10.43;4.47;;;;;;;23.76;74.50;98783.50;6126678;23;20152;-87
2022/09/03 05:22:22;;;;;;;9.27;4.67;;;;;;;23.68;75.11;98783.53;6126636;23;20156;-88
2022/09/03 05:24:48;;;;;;;8.27;4.87;;;;;;;23.83;74.20;98792.50;6101097;23;20511;-88
2022/09/03 05:27:17;;;;;;;8.30;5.10;;;;;;;23.94;74.25;98790.47;6126939;23;20217;-87
2022/09/03 05:29:44;;;;;;;11.43;4.90;;;;;;;24.04;74.32;98793.78;6126576;23;20147;-88
2022/09/03 05:32:12;;;;;;;11.10;5.07;;;;;;;24.02;74.81;98795.78;6126498;23;20181;-88
2022/09/03 05:34:38;;;;;;;13.37;6.10;;;;;;;24.12;73.83;98791.09;6126898;23;20162;-87
2022/09/03 05:37:04;;;;;;;10.53;5.43;;;;;;;24.18;73.71;98799.28;6126557;23;20152;-87
2022/09/03 05:39:29;;;;;;;7.30;4.40;;;;;;;24.21;72.75;98798.91;6100942;23;20219;-87
2022/09/03 05:41:55;;;;;;;8.53;5.20;;;;;;;24.24;72.68;98805.78;6126518;23;20148;-88
2022/09/03 05:44:22;;;;;;;11.50;5.17;;;;;;;24.29;72.49;98806.91;6126500;23;20231;-89
2022/09/03 05:46:47;;;;;;;8.20;4.47;;;;;;;24.40;71.82;98808.34;6126472;23;20183;-87
2022/09/03 05:49:13;;;;;;;6.83;4.43;;;;;;;24.54;71.18;98815.66;6126480;23;20187;-88
2022/09/03 05:51:38;;;;;;;7.37;4.47;;;;;;;24.52;70.56;98808.78;6126420;23;20273;-88
2022/09/03 05:54:04;;;;;;;6.50;3.93;;;;;;;24.54;70.64;98818.31;6126669;23;20470;-87
2022/09/03 05:56:31;;;;;;;6.90;3.80;;;;;;;24.45;69.79;98822.06;6126477;23;20560;-87
2022/09/03 05:59:00;;;;;;;12.47;4.17;;;;;;;24.42;69.87;98817.06;6126388;23;20152;-89
2022/09/03 06:01:34;;;;;;;8.13;4.30;;;;;;;24.62;69.49;98826.31;6100807;23;20591;-87
2022/09/03 06:04:02;;;;;;;7.80;3.90;;;;;;;24.76;68.63;98822.88;6126751;23;20218;-88
2022/09/03 06:06:30;;;;;;;5.57;3.63;;;;;;;24.77;68.49;98823.69;6126387;23;20152;-88
2022/09/03 06:08:58;;;;;;;10.17;4.40;;;;;;;24.74;68.46;98814.16;6126369;23;20156;-88
2022/09/03 06:11:27;;;;;;;9.83;4.10;;;;;;;24.79;68.17;98811.81;6126137;23;20179;-88
2022/09/03 06:13:59;;;;;;;7.77;4.27;;;;;;;24.85;67.74;98821.00;6126873;23;20148;-88
2022/09/03 06:16:24;;;;;;;4.57;2.80;;;;;;;24.81;67.77;98817.84;6126304;23;20147;-87
2022/09/03 06:18:50;;;;;;;5.97;3.27;;;;;;;24.94;67.77;98820.78;6126637;23;20215;-88
2022/09/03 06:21:15;;;;;;;8.70;4.10;;;;;;;25.07;67.73;98824.69;6100729;23;20155;-88
2022/09/03 06:23:41;;;;;;;9.30;4.03;;;;;;;25.14;67.74;98826.47;6126286;23;20167;-88
2022/09/03 06:26:08;;;;;;;8.53;2.80;;;;;;;25.43;66.48;98833.75;6126280;23;20158;-87
2022/09/03 06:28:36;;;;;;;7.97;3.37;;;;;;;25.38;66.34;98836.16;6126260;23;20158;-88
2022/09/03 06:31:04;;;;;;;5.13;3.20;;;;;;;25.41;65.39;98833.97;6126913;23;20152;-88
2022/09/03 06:33:31;;;;;;;4.67;3.10;;;;;;;25.32;64.96;98839.56;6100925;23;20584;-88
2022/09/03 06:35:59;;;;;;;4.67;3.03;;;;;;;25.26;65.39;98843.00;6100648;23;20151;-89
2022/09/03 06:38:26;;;;;;;5.77;2.83;;;;;;;25.13;65.90;98845.44;6126210;23;20147;-87
2022/09/03 06:40:57;;;;;;;9.27;3.57;;;;;;;25.28;65.53;98849.00;6126527;23;20651;-89
2022/09/03 06:43:23;;;;;;;11.13;3.07;;;;;;;25.47;65.04;98845.84;6126184;23;20227;-88
2022/09/03 06:46:04;;;;;;;6.17;3.33;;;;;;;25.98;63.81;98849.50;6126180;23;20206;-88
2022/09/03 06:48:31;;;;;;;5.50;2.67;;;;;;;26.27;62.17;98860.28;6126486;23;20148;-87
2022/09/03 06:51:03;;;;;;;5.10;2.77;;;;;;;26.61;61.57;98854.28;6126142;23;20176;-88
2022/09/03 06:53:33;;;;;;;4.90;2.58;;;;;;;26.77;59.42;98856.78;6126781;23;20183;-88
2022/09/03 06:56:03;;;;;;;5.22;2.88;;;;;;;26.97;59.45;98846.22;6126146;23;20191;-88
2022/09/03 06:58:31;;;;;;;6.15;2.42;;;;;;;27.12;58.51;98850.50;6127182;23;20214;-89
2022/09/03 07:01:02;;;;;;;6.20;3.17;;;;;;;27.32;57.65;98854.22;6100622;23;20466;-88
2022/09/03 07:03:28;;;;;;;5.32;2.75;;;;;;;27.38;57.74;98858.00;6126106;23;20171;-87
2022/09/03 07:05:53;;;;;;;7.38;2.90;;;;;;;27.55;59.54;98858.56;6126388;23;20152;-87
2022/09/03 07:08:18;;;;;;;5.32;2.67;;;;;;;27.91;58.96;98860.09;6126444;23;20186;-87
2022/09/03 07:10:46;;;;;;;5.03;2.83;;;;;;;28.16;57.58;98865.03;6126408;23;20532;-87
2022/09/03 07:13:12;;;;;;;5.50;2.75;;;;;;;28.46;56.60;98875.34;6125994;23;20176;-87
2022/09/03 07:15:39;;;;;;;4.28;2.65;;;;;;;28.68;55.21;98872.56;6125741;23;20159;-88
2022/09/03 07:18:04;;;;;;;6.00;2.92;;;;;;;28.64;54.27;98881.06;6126352;23;20155;-88
2022/09/03 07:20:30;;;;;;;5.43;3.13;;;;;;;28.60;55.05;98878.94;6125350;23;20152;-88
2022/09/03 07:23:00;;;;;;;6.38;3.25;;;;;;;28.49;53.67;98874.13;6124538;23;20156;-87
2022/09/03 07:25:29;;;;;;;6.68;3.08;;;;;;;28.37;55.03;98873.88;6128030;23;20136;-87
2022/09/03 07:27:58;;;;;;;5.97;3.13;;;;;;;28.41;55.13;98876.97;6101741;23;20462;-88
2022/09/03 07:30:25;;;;;;;7.05;4.00;;;;;;;28.47;55.69;98868.94;6128174;23;20187;-87
2022/09/03 07:32:52;;;;;;;7.32;3.08;;;;;;;28.60;56.05;98874.38;6126377;23;20180;-91
2022/09/03 07:35:19;;;;;;;4.80;2.90;;;;;;;28.98;54.57;98876.63;6106283;23;20152;-92
2022/09/03 07:37:46;;;;;;;4.25;2.88;;;;;;;29.04;53.80;98881.19;6132438;23;20147;-90
2022/09/03 07:40:14;;;;;;;6.57;3.70;;;;;;;29.13;54.47;98879.97;6131634;23;20611;-91
2022/09/03 07:42:41;;;;;;;9.35;4.20;;;;;;;29.27;52.08;98883.56;6132987;23;20216;-91
2022/09/03 07:45:11;;;;;;;6.43;3.03;;;;;;;29.07;53.51;98884.31;6107867;23;20666;-91
2022/09/03 07:47:45;;;;;;;7.47;3.53;;;;;;;29.02;52.66;98891.34;6133171;23;20163;-91
2022/09/03 07:50:12;;;;;;;8.60;3.15;;;;;;;29.28;52.45;98890.59;6133156;23;20195;-93
2022/09/03 07:52:38;;;;;;;5.78;3.10;;;;;;;29.29;52.34;98887.72;6106319;23;20184;-90
2022/09/03 07:55:06;;;;;;;6.57;3.80;;;;;;;29.52;52.97;98888.13;6131977;23;20554;-93
2022/09/03 07:57:32;;;;;;;5.85;2.90;;;;;;;29.54;51.09;98877.94;6106927;23;20156;-90
2022/09/03 07:59:58;;;;;;;5.53;3.13;;;;;;;29.57;52.49;98879.41;6106713;23;20584;-90
2022/09/03 08:02:30;;;;;;;4.80;2.67;;;;;;;29.60;51.78;98876.28;6132166;23;20148;-90
2022/09/03 08:04:56;;;;;;;5.55;3.38;;;;;;;29.47;49.06;98868.19;6132188;23;20136;-93
2022/09/03 08:07:26;;;;;;;5.22;2.95;;;;;;;29.30;49.54;98866.94;6106998;23;20166;-90
2022/09/03 08:09:55;;;;;;;4.85;2.80;;;;;;;29.47;50.17;98870.88;6128503;23;20151;-90
2022/09/03 08:12:26;;;;;;;6.13;2.90;;;;;;;29.52;49.16;98861.13;6128389;23;20183;-92
2022/09/03 08:14:52;;;;;;;4.07;2.35;;;;;;;29.56;49.49;98867.75;6102777;23;20155;-93
2022/09/03 08:17:24;;;;;;;3.25;2.00;;;;;;;29.60;49.32;98869.03;6102681;23;20182;-91
2022/09/03 08:19:52;;;;;;;4.90;2.40;;;;;;;29.34;48.08;98870.88;6102491;23;20152;-91
2022/09/03 08:22:19;;;;;;;3.75;2.28;;;;;;;29.57;49.79;98866.72;6127004;23;20152;-88
2022/09/03 08:24:45;;;;;;;4.78;2.40;;;;;;;29.59;49.42;98867.34;6126601;23;20178;-87
2022/09/03 08:27:11;;;;;;;5.32;2.85;;;;;;;29.54;48.25;98864.44;6126978;23;20231;-87
2022/09/03 08:29:38;;;;;;;4.97;2.03;;;;;;;29.72;48.82;98867.34;6126282;23;20210;-87
2022/09/03 08:32:05;;;;;;;3.70;2.20;;;;;;;29.83;49.01;98876.72;6125550;23;20218;-88
2022/09/03 08:34:32;;;;;;;4.10;2.50;;;;;;;30.00;48.39;98869.00;6124815;23;20202;-88
2022/09/03 08:37:00;;;;;;;5.20;2.70;;;;;;;29.97;47.92;98858.63;6126004;23;20243;-88
2022/09/03 08:39:25;;;;;;;4.47;2.22;;;;;;;30.19;50.55;98858.13;6126589;23;20152;-88
2022/09/03 08:42:17;;;;;;;5.55;2.03;;;;;;;30.42;47.73;98861.19;6127052;23;20210;-88
2022/09/03 08:44:53;;;;;;;5.53;2.30;;;;;;;30.52;46.45;98846.41;6127410;23;20135;-87
2022/09/03 08:47:35;;;;;;;4.95;2.67;;;;;;;30.67;46.27;98850.50;6127785;23;20200;-88
2022/09/03 08:50:22;;;;;;;6.47;3.08;;;;;;;30.85;47.32;98853.31;6127757;23;20147;-87
2022/09/03 08:53:05;;;;;;;4.25;2.42;;;;;;;31.06;46.43;98854.88;6127564;23;20172;-87
2022/09/03 08:55:43;;;;;;;5.68;2.60;;;;;;;31.24;45.26;98846.84;6079574;23;20207;-88
2022/09/03 08:58:17;;;;;;;4.03;2.30;;;;;;;31.31;45.54;98842.22;6126854;23;20564;-87
2022/09/03 09:01:12;;;;;;;4.40;2.88;;;;;;;31.54;44.81;98847.06;6127262;23;20152;-87
2022/09/03 09:04:15;;;;;;;4.18;2.35;;;;;;;31.48;44.69;98845.22;6127289;23;20136;-87
2022/09/03 09:06:59;;;;;;;5.15;2.80;;;;;;;31.51;45.03;98847.50;6127556;23;20600;-87
2022/09/03 09:10:03;;;;;;;4.13;2.53;;;;;;;31.59;42.58;98847.22;6126849;23;20151;-87
2022/09/03 09:13:12;;;;;;;5.55;3.05;;;;;;;31.67;43.99;98856.94;6127374;23;20171;-87
2022/09/03 09:15:56;;;;;;;4.32;2.60;;;;;;;31.83;42.45;98859.91;6125091;23;20155;-87
2022/09/03 09:18:49;;;;;;;5.32;2.65;;;;;;;31.83;42.69;98851.78;6102291;23;20140;-88
2022/09/03 09:21:26;;;;;;;5.13;2.83;;;;;;;31.85;43.84;98849.69;6127471;23;20216;-87
2022/09/03 09:23:59;;;;;;;3.97;2.55;;;;;;;31.70;41.37;98848.38;6127458;23;20525;-86
2022/09/03 09:26:27;;;;;;;5.10;2.90;;;;;;;31.63;42.74;98856.53;6127068;23;20227;-87
2022/09/03 09:29:00;;;;;;;6.60;2.80;;;;;;;31.61;43.00;98842.38;6126655;23;20238;-87
2022/09/03 09:31:29;;;;;;;5.35;2.78;;;;;;;31.43;43.11;98858.56;6126959;23;20140;-87
2022/09/03 09:34:00;;;;;;;7.57;2.83;;;;;;;31.24;43.99;98857.66;6126589;23;20151;-87
2022/09/03 09:36:27;;;;;;;6.75;3.85;;;;;;;31.06;43.82;98848.63;6126658;23;20136;-88
2022/09/03 09:38:53;;;;;;;6.60;3.33;;;;;;;31.23;44.39;98849.78;6100928;23;20175;-88
2022/09/03 09:41:22;;;;;;;4.95;2.60;;;;;;;31.28;43.93;98841.81;6126907;23;20538;-86
2022/09/03 09:44:04;;;;;;;8.52;3.25;;;;;;;31.28;43.89;98836.41;6126579;23;20147;-87
2022/09/03 09:46:35;;;;;;;5.20;3.10;;;;;;;31.35;43.60;98832.59;6127079;23;20132;-86
2022/09/03 09:49:01;;;;;;;7.10;3.00;;;;;;;31.72;41.99;98832.69;6126868;23;20133;-87
2022/09/03 09:51:30;;;;;;;5.22;2.92;;;;;;;31.98;41.56;98838.69;6126715;23;20189;-88
2022/09/03 09:54:12;;;;;;;3.75;2.35;;;;;;;32.34;41.02;98842.50;6126796;23;20223;-87
2022/09/03 09:56:41;;;;;;;5.50;2.92;;;;;;;32.45;40.61;98839.84;6126810;23;20250;-87
2022/09/03 09:59:09;;;;;;;6.97;2.80;;;;;;;32.29;40.84;98839.63;6126396;23;20152;-87
2022/09/03 10:01:38;;;;;;;6.05;2.55;;;;;;;32.42;40.99;98839.47;6126305;23;20147;-87
2022/09/03 10:04:28;;;;;;;4.50;2.90;;;;;;;32.73;41.04;98842.03;6126199;23;20148;-88
2022/09/03 10:07:00;;;;;;;5.22;2.85;;;;;;;32.62;39.90;98845.53;6126500;23;20194;-87
2022/09/03 10:09:28;;;;;;;7.90;3.45;;;;;;;32.54;41.11;98849.38;6126746;23;20136;-87
2022/09/03 10:12:13;;;;;;;8.85;3.17;;;;;;;32.37;41.90;98842.03;6101154;23;20186;-87
2022/09/03 10:14:52;;;;;;;4.85;3.00;;;;;;;32.40;40.76;98852.44;6126709;23;20136;-88
2022/09/03 10:17:47;;;;;;;8.60;3.33;;;;;;;32.78;41.00;98844.91;6127024;23;20167;-86
2022/09/03 10:20:32;;;;;;;5.22;2.75;;;;;;;33.19;40.64;98853.09;6126688;23;20214;-87
2022/09/03 10:23:30;;;;;;;7.63;2.95;;;;;;;33.22;40.42;98847.19;6126733;23;20527;-87
2022/09/03 10:26:17;;;;;;;4.03;2.75;;;;;;;33.53;39.32;98840.63;6126007;23;20147;-86
2022/09/03 10:28:49;;;;;;;5.63;3.17;;;;;;;33.49;38.51;98842.16;6126495;23;20140;-86
2022/09/03 10:31:43;;;;;;;6.43;3.20;;;;;;;33.64;38.84;98836.28;6126854;23;20147;-87
2022/09/03 10:34:12;;;;;;;6.78;3.35;;;;;;;33.84;38.62;98836.75;6126155;23;20163;-87
2022/09/03 10:37:06;;;;;;;6.60;3.40;;;;;;;33.81;38.62;98839.94;6126110;23;20611;-87
2022/09/03 10:40:04;;;;;;;4.90;2.15;;;;;;;33.66;38.49;98832.28;6126276;23;20211;-87
2022/09/03 10:42:44;;;;;;;6.80;2.90;;;;;;;33.48;38.48;98832.34;6126071;23;20136;-88
2022/09/03 10:45:38;;;;;;;4.97;2.53;;;;;;;33.64;38.52;98839.00;6126930;23;20186;-88
2022/09/03 10:48:25;;;;;;;4.63;2.70;;;;;;;33.51;38.72;98831.03;6126549;23;20143;-88
2022/09/03 10:51:15;;;;;;;5.20;2.85;;;;;;;33.64;38.99;98828.13;6100752;23;20148;-87
2022/09/03 10:54:05;;;;;;;5.63;3.35;;;;;;;33.40;39.78;98825.38;6126881;23;20151;-87
2022/09/03 10:57:11;;;;;;;3.78;2.40;;;;;;;33.58;37.56;98824.47;6100645;23;20182;-87
2022/09/03 11:00:11;;;;;;;5.43;2.53;;;;;;;33.85;37.81;98816.66;6102130;23;20144;-87
2022/09/03 11:03:11;;;;;;;5.97;3.10;;;;;;;34.14;38.07;98820.31;6128267;23;20167;-87
2022/09/03 11:06:14;;;;;;;5.22;2.63;;;;;;;34.64;36.77;98815.13;6128297;23;20136;-87
2022/09/03 11:08:45;;;;;;;4.25;2.90;;;;;;;34.79;36.61;98815.41;6102343;23;20456;-87
2022/09/03 11:11:20;;;;;;;4.80;2.60;;;;;;;34.94;36.34;98818.41;6128325;23;20140;-87
2022/09/03 11:14:07;;;;;;;5.28;2.40;;;;;;;35.12;36.30;98810.03;6128314;23;20158;-87
2022/09/03 11:16:43;;;;;;;5.15;2.85;;;;;;;35.41;35.71;98821.69;6128633;23;20210;-87
2022/09/03 11:19:15;;;;;;;3.92;2.30;;;;;;;35.26;35.53;98816.00;6128271;23;20170;-88
2022/09/03 11:21:43;;;;;;;5.07;2.95;;;;;;;34.85;36.01;98825.34;6079714;23;20155;-88
2022/09/03 11:24:23;;;;;;;3.80;2.50;;;;;;;34.17;37.38;98823.41;6128529;23;20148;-88
2022/09/03 11:27:26;;;;;;;5.38;2.92;;;;;;;34.23;37.98;98830.59;6128234;23;20140;-87
2022/09/03 11:30:01;;;;;;;5.78;2.78;;;;;;;34.54;37.60;98832.03;6128459;23;20132;-88
2022/09/03 11:32:55;;;;;;;3.92;2.30;;;;;;;35.08;36.70;98822.50;6102145;23;20632;-88
2022/09/03 11:35:32;;;;;;;4.72;2.38;;;;;;;35.11;35.42;98822.03;6128142;23;20140;-88
2022/09/03 11:38:15;;;;;;;4.70;2.55;;;;;;;35.12;35.84;98819.03;6127654;23;20152;-89
2022/09/03 11:41:09;;;;;;;3.63;2.10;;;;;;;35.42;35.02;98810.56;6128081;23;20151;-87
2022/09/03 11:43:36;;;;;;;4.60;2.72;;;;;;;35.19;35.92;98816.19;6102134;23;20207;-88
2022/09/03 11:46:20;;;;;;;5.53;2.92;;;;;;;35.14;35.22;98813.38;6127976;23;20576;-89
2022/09/03 11:48:47;;;;;;;6.47;2.67;;;;;;;35.25;35.23;98808.91;6127107;23;20568;-89
2022/09/03 11:51:29;;;;;;;5.22;2.20;;;;;;;35.37;34.06;98810.47;6127544;23;20235;-89
2022/09/03 11:54:13;;;;;;;4.63;2.67;;;;;;;35.65;34.62;98804.97;6127923;23;20175;-88
2022/09/03 11:56:40;;;;;;;4.30;2.17;;;;;;;35.82;34.32;98812.28;6127221;23;20594;-88
2022/09/03 11:59:14;;;;;;;4.28;2.35;;;;;;;35.73;33.75;98815.44;6101945;23;20163;-89
2022/09/03 12:01:51;;;;;;;4.75;2.40;;;;;;;35.63;33.99;98818.03;6101905;23;20151;-88
2022/09/03 12:04:20;;;;;;;5.93;2.42;;;;;;;35.53;34.57;98806.09;6125764;23;20164;-89